Terminal Aerodrome Forecast
Issued by NWS

Home | Current Version | Previous Version | Text Only | Print | Product List | Glossary On
Versions: 1 2 3 4 5 6 7 8 9 10 11 12 13 14 15 16 17 18 19 20 21 22 23 24
000
FTUS43 KILX 281100
TAFCMI
TAF
KCMI 281131Z 2812/2912 14008KT 5SM BR SKC
     FM281400 14012KT P6SM SCT250
     FM281600 15013G23KT P6SM BKN250
     FM282100 15018G28KT P6SM BKN200
     FM290400 16018G28KT P6SM BKN080=

USA.gov is the U.S. government's official web portal to all federal, state and local government web resources and services.